createdAt,value
2023-03-11T00:00:17.085Z,1.70
2023-03-11T00:02:45.529Z,1.70
2023-03-11T00:05:21.313Z,1.70
2023-03-11T00:07:47.939Z,1.70
2023-03-11T00:10:21.326Z,1.70
2023-03-11T00:12:47.941Z,1.80
2023-03-11T00:15:14.852Z,2.40
2023-03-11T00:17:41.569Z,1.70
2023-03-11T00:20:15.176Z,1.70
2023-03-11T00:22:41.736Z,1.70
2023-03-11T00:25:11.348Z,1.70
2023-03-11T00:27:37.934Z,1.70
2023-03-11T00:30:05.429Z,1.70
2023-03-11T00:32:32.111Z,1.70
2023-03-11T00:34:58.709Z,1.70
2023-03-11T00:37:25.280Z,1.70
2023-03-11T00:39:51.899Z,1.70
2023-03-11T00:42:18.480Z,1.70
2023-03-11T00:44:45.060Z,1.80
2023-03-11T00:47:12.057Z,1.70
2023-03-11T00:49:38.965Z,1.60
2023-03-11T00:52:06.009Z,1.70
2023-03-11T00:54:32.631Z,1.60
2023-03-11T00:56:59.176Z,1.70
2023-03-11T00:59:25.796Z,1.70
2023-03-11T01:01:52.364Z,1.70
2023-03-11T01:04:18.992Z,1.70
2023-03-11T01:06:46.024Z,1.70
2023-03-11T01:09:12.852Z,1.70
2023-03-11T01:11:39.478Z,1.70
2023-03-11T01:14:06.091Z,1.70
2023-03-11T01:16:32.670Z,1.80
2023-03-11T01:18:59.218Z,1.80
2023-03-11T01:21:26.022Z,1.70
2023-03-11T01:23:52.667Z,1.70
2023-03-11T01:26:19.218Z,1.80
2023-03-11T01:28:45.811Z,1.80
2023-03-11T01:31:12.854Z,1.80
2023-03-11T01:33:40.096Z,1.80
2023-03-11T01:36:07.135Z,1.80
2023-03-11T01:38:33.711Z,1.80
2023-03-11T01:41:00.332Z,1.70
2023-03-11T01:43:56.525Z,1.70
2023-03-11T01:46:30.533Z,1.70
2023-03-11T01:49:00.059Z,1.70
2023-03-11T01:51:32.358Z,1.70
2023-03-11T01:54:04.994Z,1.70
2023-03-11T01:56:32.743Z,1.70
2023-03-11T01:58:59.504Z,1.70
2023-03-11T02:01:26.175Z,1.70
2023-03-11T02:03:53.370Z,1.70
2023-03-11T02:06:23.182Z,1.70
2023-03-11T02:08:50.687Z,1.70
2023-03-11T02:11:21.952Z,1.70
2023-03-11T02:13:49.392Z,1.60
2023-03-11T02:16:16.910Z,1.60
2023-03-11T02:18:44.174Z,1.70
2023-03-11T02:21:27.214Z,1.70
2023-03-11T02:24:07.745Z,1.70
2023-03-11T02:27:05.483Z,1.70
2023-03-11T02:29:33.599Z,1.60
2023-03-11T02:32:04.994Z,1.50
2023-03-11T02:34:33.466Z,1.40
2023-03-11T02:37:01.378Z,1.40
2023-03-11T02:39:34.224Z,1.40
2023-03-11T02:42:08.411Z,1.30
2023-03-11T02:44:35.136Z,1.30
2023-03-11T02:47:02.125Z,1.20
2023-03-11T02:49:30.023Z,1.20
2023-03-11T02:51:56.795Z,1.30
2023-03-11T02:54:23.398Z,1.20
2023-03-11T02:56:49.939Z,1.20
2023-03-11T02:59:16.479Z,1.20
2023-03-11T03:01:43.332Z,1.20
2023-03-11T03:04:09.919Z,1.20
2023-03-11T03:06:36.696Z,1.30
2023-03-11T03:09:03.802Z,1.30
2023-03-11T03:11:30.775Z,1.30
2023-03-11T03:13:57.321Z,1.30
2023-03-11T03:16:23.937Z,1.40
2023-03-11T03:18:51.446Z,1.40
2023-03-11T03:21:18.273Z,1.40
2023-03-11T03:23:45.056Z,1.40
2023-03-11T03:26:13.906Z,1.40
2023-03-11T03:28:40.447Z,1.40
2023-03-11T03:31:08.806Z,1.50
2023-03-11T03:33:35.702Z,1.40
2023-03-11T03:36:10.442Z,1.40
2023-03-11T03:38:37.042Z,1.40
2023-03-11T03:41:03.752Z,1.40
2023-03-11T03:43:30.359Z,1.40
2023-03-11T03:46:04.990Z,1.40
2023-03-11T03:48:31.858Z,1.40
2023-03-11T03:51:06.713Z,1.40
2023-03-11T03:53:37.387Z,1.40
2023-03-11T03:56:06.222Z,1.40
2023-03-11T03:58:32.906Z,1.40
2023-03-11T04:01:00.136Z,1.30
2023-03-11T04:03:27.732Z,1.30
2023-03-11T04:05:54.324Z,1.30
2023-03-11T04:08:21.193Z,1.30
2023-03-11T04:10:57.410Z,1.30
2023-03-11T04:13:24.056Z,1.30
2023-03-11T04:15:50.693Z,1.40
2023-03-11T04:18:17.339Z,1.30
2023-03-11T04:20:43.931Z,1.30
2023-03-11T04:23:10.668Z,1.30
2023-03-11T04:25:37.213Z,1.30
2023-03-11T04:28:03.972Z,1.20
2023-03-11T04:30:30.565Z,1.30
2023-03-11T04:32:57.132Z,1.30
2023-03-11T04:35:23.810Z,1.30
2023-03-11T04:37:50.595Z,1.20
2023-03-11T04:40:17.563Z,1.20
2023-03-11T04:42:44.113Z,1.20
2023-03-11T04:45:11.172Z,1.30
2023-03-11T04:47:37.731Z,1.30
2023-03-11T04:50:04.786Z,1.20
2023-03-11T04:52:31.402Z,1.10
2023-03-11T04:54:57.989Z,1.10
2023-03-11T04:57:24.636Z,2.80
2023-03-11T04:59:51.194Z,1.00
2023-03-11T05:02:17.797Z,1.00
2023-03-11T05:04:45.306Z,1.00
2023-03-11T05:07:11.922Z,1.00
2023-03-11T05:09:38.802Z,1.00
2023-03-11T05:12:06.337Z,1.00
2023-03-11T05:14:32.890Z,1.00
2023-03-11T05:16:59.448Z,1.00
2023-03-11T05:19:32.236Z,1.00
2023-03-11T05:21:59.019Z,1.00
2023-03-11T05:24:26.143Z,1.00
2023-03-11T05:26:53.163Z,1.00
2023-03-11T05:29:20.094Z,0.90
2023-03-11T05:31:47.207Z,1.00
2023-03-11T05:34:14.811Z,1.00
2023-03-11T05:36:41.429Z,1.00
2023-03-11T05:39:08.355Z,1.00
2023-03-11T05:41:34.929Z,1.00
2023-03-11T05:44:01.653Z,1.00
2023-03-11T05:46:28.335Z,1.10
2023-03-11T05:48:54.973Z,1.00
2023-03-11T05:51:21.618Z,1.00
2023-03-11T05:53:49.204Z,1.00
2023-03-11T05:56:16.270Z,1.30
2023-03-11T05:58:42.913Z,1.10
2023-03-11T06:01:14.827Z,1.00
2023-03-11T06:03:42.525Z,1.00
2023-03-11T06:06:11.470Z,1.00
2023-03-11T06:08:38.771Z,1.10
2023-03-11T06:11:08.023Z,1.00
2023-03-11T06:13:35.492Z,1.10
2023-03-11T06:16:02.778Z,1.00
2023-03-11T06:18:29.396Z,1.00
2023-03-11T06:20:58.721Z,1.10
2023-03-11T06:23:25.776Z,1.10
2023-03-11T06:26:00.043Z,1.10
2023-03-11T06:28:27.181Z,1.00
2023-03-11T06:30:56.574Z,1.10
2023-03-11T06:33:23.986Z,1.10
2023-03-11T06:35:58.389Z,1.40
2023-03-11T06:38:25.401Z,1.40
2023-03-11T06:40:52.764Z,1.20
2023-03-11T06:43:19.871Z,1.20
2023-03-11T06:45:46.439Z,1.30
2023-03-11T06:48:13.055Z,1.50
2023-03-11T06:50:39.629Z,1.50
2023-03-11T06:53:07.616Z,1.60
2023-03-11T06:55:35.188Z,1.60
2023-03-11T06:58:01.843Z,1.80
2023-03-11T07:00:30.934Z,1.90
2023-03-11T07:02:57.748Z,2.10
2023-03-11T07:05:24.318Z,2.50
2023-03-11T07:07:54.427Z,3.70
2023-03-11T07:10:21.179Z,5.10
2023-03-11T07:12:47.738Z,5.80
2023-03-11T07:15:14.328Z,6.80
2023-03-11T07:17:40.953Z,8.00
2023-03-11T07:20:08.208Z,7.20
2023-03-11T07:22:34.859Z,7.90
2023-03-11T07:25:01.439Z,7.30
2023-03-11T07:27:28.928Z,6.50
2023-03-11T07:29:58.029Z,6.40
2023-03-11T07:32:24.667Z,8.20
2023-03-11T07:34:51.312Z,9.50
2023-03-11T07:37:17.888Z,12.70
2023-03-11T07:39:44.544Z,13.50
2023-03-11T07:42:11.126Z,13.00
2023-03-11T07:44:37.666Z,9.80
2023-03-11T07:47:07.070Z,8.10
2023-03-11T07:49:33.855Z,7.60
2023-03-11T07:52:00.535Z,6.90
2023-03-11T07:54:27.210Z,7.20
2023-03-11T07:56:53.854Z,7.90
2023-03-11T07:59:20.464Z,13.00
2023-03-11T08:01:47.257Z,18.90
2023-03-11T08:04:16.963Z,21.60
2023-03-11T08:06:46.253Z,23.60
2023-03-11T08:09:13.366Z,25.90
2023-03-11T08:11:40.541Z,26.10
2023-03-11T08:14:07.282Z,26.10
2023-03-11T08:16:34.368Z,25.90
2023-03-11T08:19:00.998Z,26.60
2023-03-11T08:21:31.720Z,27.30
2023-03-11T08:24:00.500Z,28.00
2023-03-11T08:26:27.845Z,28.20
2023-03-11T08:28:55.963Z,27.80
2023-03-11T08:31:28.338Z,28.40
2023-03-11T08:33:57.918Z,28.40
2023-03-11T08:36:24.734Z,27.50
2023-03-11T08:38:51.322Z,26.70
2023-03-11T08:41:17.963Z,27.10
2023-03-11T08:43:44.856Z,26.80
2023-03-11T08:46:34.048Z,26.50
2023-03-11T08:49:01.755Z,26.10
2023-03-11T08:51:30.069Z,25.90
2023-03-11T08:53:56.726Z,25.90
2023-03-11T08:56:23.587Z,26.60
2023-03-11T08:58:50.821Z,26.90
2023-03-11T09:01:17.834Z,25.40
2023-03-11T09:03:44.543Z,26.40
2023-03-11T09:06:15.261Z,26.50
2023-03-11T09:08:43.282Z,26.70
2023-03-11T09:11:13.309Z,26.50
2023-03-11T09:13:41.104Z,27.40
2023-03-11T09:16:16.037Z,28.10
2023-03-11T09:18:42.960Z,27.80
2023-03-11T09:21:10.046Z,28.70
2023-03-11T09:23:36.696Z,27.30
2023-03-11T09:26:03.850Z,27.30
2023-03-11T09:28:30.656Z,26.90
2023-03-11T09:30:57.655Z,27.00
2023-03-11T09:33:24.814Z,27.40
2023-03-11T09:35:51.521Z,28.60
2023-03-11T09:38:18.099Z,28.40
2023-03-11T09:40:52.118Z,24.20
2023-03-11T09:43:59.871Z,25.40
2023-03-11T09:46:57.977Z,27.70
2023-03-11T09:49:34.843Z,29.80
2023-03-11T09:52:10.433Z,30.50
2023-03-11T09:54:45.210Z,30.30
2023-03-11T09:57:20.684Z,29.40
2023-03-11T09:59:48.631Z,29.60
2023-03-11T10:02:19.980Z,26.20
2023-03-11T10:04:57.162Z,28.20
2023-03-11T10:07:37.990Z,28.80
2023-03-11T10:10:05.472Z,28.30
2023-03-11T10:12:49.908Z,27.40
2023-03-11T10:15:23.276Z,27.80
2023-03-11T10:18:21.619Z,23.90
2023-03-11T10:21:25.836Z,25.90
2023-03-11T10:24:03.476Z,26.90
2023-03-11T10:26:41.299Z,24.80
2023-03-11T10:29:28.778Z,25.50
2023-03-11T10:32:05.224Z,26.20
2023-03-11T10:34:40.944Z,27.50
2023-03-11T10:37:17.689Z,23.10
2023-03-11T10:39:47.844Z,25.00
2023-03-11T10:42:24.849Z,26.40
2023-03-11T10:44:52.608Z,24.70
2023-03-11T10:47:22.879Z,23.90
2023-03-11T10:49:50.096Z,25.80
2023-03-11T10:52:17.120Z,25.30
2023-03-11T10:54:58.514Z,26.80
2023-03-11T10:57:36.986Z,27.10
2023-03-11T11:00:16.940Z,24.40
2023-03-11T11:02:58.235Z,24.40
2023-03-11T11:05:32.557Z,19.40
2023-03-11T11:08:17.048Z,16.00
2023-03-11T11:10:55.988Z,13.10
2023-03-11T11:13:25.329Z,16.50
2023-03-11T11:16:01.619Z,15.30
2023-03-11T11:18:55.308Z,13.00
2023-03-11T11:21:37.163Z,17.40
2023-03-11T11:24:21.210Z,20.00
2023-03-11T11:27:21.045Z,18.70
2023-03-11T11:30:02.315Z,19.30
2023-03-11T11:32:29.132Z,21.30
2023-03-11T11:35:05.008Z,22.60
2023-03-11T11:37:37.207Z,22.60
2023-03-11T11:40:11.508Z,23.80
2023-03-11T11:42:40.257Z,23.80
2023-03-11T11:45:22.073Z,24.10
2023-03-11T11:47:52.563Z,24.30
2023-03-11T11:50:37.102Z,25.90
2023-03-11T11:53:41.889Z,25.30
2023-03-11T11:56:08.582Z,25.70
2023-03-11T11:58:35.477Z,26.30
2023-03-11T12:01:05.610Z,24.20
2023-03-11T12:03:58.252Z,24.70
2023-03-11T12:06:43.176Z,23.20
2023-03-11T12:09:37.763Z,23.60
2023-03-11T12:12:38.700Z,22.10
2023-03-11T12:15:26.564Z,21.80
2023-03-11T12:17:58.866Z,18.70
2023-03-11T12:20:32.633Z,16.00
2023-03-11T12:23:17.694Z,14.30
2023-03-11T12:26:11.993Z,16.20
2023-03-11T12:28:38.689Z,20.80
2023-03-11T12:31:10.213Z,21.80
2023-03-11T12:33:55.517Z,18.00
2023-03-11T12:36:25.687Z,16.10
2023-03-11T12:38:53.593Z,15.30
2023-03-11T12:41:39.899Z,14.70
2023-03-11T12:44:28.820Z,14.20
2023-03-11T12:46:58.514Z,13.90
2023-03-11T12:49:26.609Z,14.70
2023-03-11T12:52:11.530Z,13.20
2023-03-11T12:54:44.052Z,12.50
2023-03-11T12:57:19.410Z,14.30
2023-03-11T12:59:57.335Z,15.60
2023-03-11T13:03:10.869Z,13.50
2023-03-11T13:06:08.075Z,12.10
2023-03-11T13:08:51.927Z,12.70
2023-03-11T13:11:33.208Z,15.20
2023-03-11T13:14:16.121Z,16.30
2023-03-11T13:16:43.925Z,17.20
2023-03-11T13:19:34.278Z,17.80
2023-03-11T13:22:02.939Z,17.60
2023-03-11T13:24:29.595Z,17.90
2023-03-11T13:27:04.864Z,18.10
2023-03-11T13:29:51.942Z,17.90
2023-03-11T13:32:30.765Z,17.30
2023-03-11T13:35:16.088Z,16.10
2023-03-11T13:38:05.959Z,17.00
2023-03-11T13:40:40.889Z,17.20
2023-03-11T13:43:19.009Z,16.70
2023-03-11T13:46:00.137Z,16.30
2023-03-11T13:48:32.091Z,14.90
2023-03-11T13:51:30.653Z,16.20
2023-03-11T13:54:20.063Z,17.30
2023-03-11T13:57:12.275Z,18.00
2023-03-11T13:59:38.862Z,17.60
2023-03-11T14:02:08.148Z,17.70
2023-03-11T14:04:37.386Z,17.80
2023-03-11T14:07:20.593Z,17.50
2023-03-11T14:09:47.155Z,17.30
2023-03-11T14:12:16.924Z,16.90
2023-03-11T14:14:58.765Z,16.50
2023-03-11T14:17:25.325Z,16.20
2023-03-11T14:20:06.742Z,15.50
2023-03-11T14:22:34.254Z,14.90
2023-03-11T14:25:05.230Z,14.30
2023-03-11T14:27:32.074Z,13.80
2023-03-11T14:29:58.751Z,13.10
2023-03-11T14:32:27.776Z,13.40
2023-03-11T14:34:54.938Z,13.10
2023-03-11T14:37:33.149Z,13.00
2023-03-11T14:39:59.834Z,13.10
2023-03-11T14:42:35.040Z,12.70
2023-03-11T14:45:08.110Z,13.40
2023-03-11T14:48:05.620Z,13.30
2023-03-11T14:50:35.090Z,12.80
2023-03-11T14:53:25.460Z,12.40
2023-03-11T14:55:57.641Z,11.50
2023-03-11T14:58:29.548Z,11.30
2023-03-11T15:01:02.472Z,11.20
2023-03-11T15:03:32.139Z,11.20
2023-03-11T15:06:08.566Z,10.70
2023-03-11T15:08:57.789Z,10.70
2023-03-11T15:11:28.251Z,10.70
2023-03-11T15:14:15.773Z,10.60
2023-03-11T15:16:42.456Z,10.40
2023-03-11T15:19:30.519Z,10.20
2023-03-11T15:22:00.935Z,9.90
2023-03-11T15:24:31.161Z,9.80
2023-03-11T15:27:19.889Z,9.70
2023-03-11T15:29:54.599Z,9.70
2023-03-11T15:32:39.211Z,9.50
2023-03-11T15:35:10.527Z,9.40
2023-03-11T15:37:38.797Z,9.30
2023-03-11T15:40:42.457Z,9.00
2023-03-11T15:43:46.607Z,9.10
2023-03-11T15:46:13.245Z,9.00
2023-03-11T15:48:39.859Z,8.80
2023-03-11T15:51:06.473Z,8.70
2023-03-11T15:53:33.232Z,8.50
2023-03-11T15:56:10.532Z,8.50
2023-03-11T15:58:38.202Z,8.50
2023-03-11T16:01:05.207Z,8.60
2023-03-11T16:03:31.861Z,8.70
2023-03-11T16:05:58.563Z,8.40
2023-03-11T16:08:25.139Z,8.40
2023-03-11T16:10:51.699Z,8.40
2023-03-11T16:13:18.297Z,8.20
2023-03-11T16:15:46.808Z,8.30
2023-03-11T16:18:13.662Z,8.10
2023-03-11T16:20:47.645Z,8.00
2023-03-11T16:23:23.501Z,7.90
2023-03-11T16:25:51.411Z,7.90
2023-03-11T16:28:18.045Z,7.80
2023-03-11T16:30:44.831Z,7.80
2023-03-11T16:33:11.514Z,7.80
2023-03-11T16:35:38.460Z,7.50
2023-03-11T16:38:06.579Z,7.40
2023-03-11T16:40:33.195Z,7.40
2023-03-11T16:43:02.727Z,7.30
2023-03-11T16:45:29.718Z,7.10
2023-03-11T16:47:56.316Z,7.00
2023-03-11T16:50:26.712Z,6.90
2023-03-11T16:52:55.016Z,6.80
2023-03-11T16:55:23.633Z,6.90
2023-03-11T16:57:50.334Z,6.90
2023-03-11T17:00:18.066Z,6.70
2023-03-11T17:02:44.727Z,6.70
2023-03-11T17:05:11.501Z,6.60
2023-03-11T17:07:39.789Z,6.40
2023-03-11T17:10:08.289Z,6.40
2023-03-11T17:12:35.887Z,6.30
2023-03-11T17:15:04.526Z,6.30
2023-03-11T17:17:31.235Z,6.20
2023-03-11T17:19:57.785Z,6.10
2023-03-11T17:22:24.343Z,6.00
2023-03-11T17:24:50.945Z,5.90
2023-03-11T17:27:17.645Z,5.80
2023-03-11T17:29:44.210Z,5.70
2023-03-11T17:32:16.802Z,5.60
2023-03-11T17:34:43.791Z,5.50
2023-03-11T17:37:10.353Z,5.50
2023-03-11T17:39:36.981Z,5.30
2023-03-11T17:42:03.740Z,5.10
2023-03-11T17:44:44.648Z,4.90
2023-03-11T17:47:17.780Z,4.80
2023-03-11T17:49:44.332Z,4.70
2023-03-11T17:52:12.858Z,4.50
2023-03-11T17:54:39.635Z,4.50
2023-03-11T17:57:06.662Z,4.40
2023-03-11T17:59:33.272Z,4.30
2023-03-11T18:02:00.026Z,4.10
2023-03-11T18:04:26.691Z,4.00
2023-03-11T18:06:54.680Z,3.80
2023-03-11T18:09:21.300Z,3.80
2023-03-11T18:11:47.893Z,3.70
2023-03-11T18:14:14.471Z,3.50
2023-03-11T18:16:41.151Z,3.40
2023-03-11T18:19:08.660Z,3.30
2023-03-11T18:21:35.230Z,3.20
2023-03-11T18:24:01.982Z,3.10
2023-03-11T18:26:30.086Z,3.10
2023-03-11T18:28:58.455Z,3.00
2023-03-11T18:31:26.477Z,3.00
2023-03-11T18:33:55.648Z,2.80
2023-03-11T18:36:27.356Z,2.90
2023-03-11T18:38:56.684Z,3.00
2023-03-11T18:41:24.511Z,3.00
2023-03-11T18:43:57.211Z,2.70
2023-03-11T18:46:25.440Z,2.60
2023-03-11T18:48:58.903Z,2.50
2023-03-11T18:51:27.607Z,2.30
2023-03-11T18:53:54.413Z,2.20
2023-03-11T18:56:21.274Z,2.10
2023-03-11T18:58:47.891Z,1.90
2023-03-11T19:01:16.853Z,1.90
2023-03-11T19:03:44.669Z,1.80
2023-03-11T19:06:13.628Z,1.80
2023-03-11T19:08:40.359Z,1.80
2023-03-11T19:11:12.627Z,1.70
2023-03-11T19:13:46.988Z,1.70
2023-03-11T19:16:19.548Z,1.60
2023-03-11T19:18:46.593Z,1.70
2023-03-11T19:21:14.881Z,1.60
2023-03-11T19:23:41.428Z,1.60
2023-03-11T19:26:08.178Z,1.50
2023-03-11T19:28:35.812Z,1.40
2023-03-11T19:31:03.813Z,1.30
2023-03-11T19:33:30.533Z,1.10
2023-03-11T19:35:59.568Z,1.10
2023-03-11T19:38:27.233Z,1.10
2023-03-11T19:41:06.085Z,1.20
2023-03-11T19:43:35.449Z,1.30
2023-03-11T19:46:03.731Z,1.30
2023-03-11T19:48:30.601Z,1.20
2023-03-11T19:50:58.422Z,1.20
2023-03-11T19:53:25.923Z,1.10
2023-03-11T19:55:54.560Z,0.90
2023-03-11T19:58:23.681Z,0.80
2023-03-11T20:00:51.320Z,0.70
2023-03-11T20:03:19.526Z,0.70
2023-03-11T20:05:47.859Z,0.80
2023-03-11T20:08:17.492Z,0.70
2023-03-11T20:10:47.151Z,0.70
2023-03-11T20:13:15.708Z,0.70
2023-03-11T20:15:43.308Z,0.80
2023-03-11T20:18:09.924Z,0.90
2023-03-11T20:20:38.928Z,0.90
2023-03-11T20:23:05.637Z,1.00
2023-03-11T20:25:32.718Z,1.00
2023-03-11T20:28:00.052Z,1.00
2023-03-11T20:30:28.347Z,1.00
2023-03-11T20:32:55.200Z,1.10
2023-03-11T20:35:22.571Z,1.20
2023-03-11T20:37:49.552Z,1.10
2023-03-11T20:40:18.021Z,1.10
2023-03-11T20:42:46.866Z,1.00
2023-03-11T20:45:21.546Z,1.10
2023-03-11T20:47:49.392Z,1.10
2023-03-11T20:50:16.188Z,1.10
2023-03-11T20:52:42.761Z,1.10
2023-03-11T20:55:10.167Z,1.10
2023-03-11T20:57:38.145Z,1.10
2023-03-11T21:00:11.744Z,1.20
2023-03-11T21:02:40.105Z,1.20
2023-03-11T21:05:08.746Z,1.10
2023-03-11T21:07:35.921Z,1.10
2023-03-11T21:10:05.380Z,1.00
2023-03-11T21:12:32.091Z,1.00
2023-03-11T21:14:58.787Z,1.10
2023-03-11T21:17:25.515Z,1.10
2023-03-11T21:19:52.126Z,1.10
2023-03-11T21:22:19.553Z,1.10
2023-03-11T21:24:50.377Z,1.20
2023-03-11T21:27:17.002Z,1.40
2023-03-11T21:29:43.844Z,1.10
2023-03-11T21:32:10.525Z,1.00
2023-03-11T21:34:37.161Z,0.90
2023-03-11T21:37:03.852Z,0.80
2023-03-11T21:39:30.439Z,0.70
2023-03-11T21:41:57.086Z,0.70
2023-03-11T21:44:23.870Z,0.60
2023-03-11T21:46:50.549Z,0.60
2023-03-11T21:49:17.260Z,0.50
2023-03-11T21:51:43.954Z,0.50
2023-03-11T21:54:12.392Z,0.50
2023-03-11T21:56:39.529Z,0.40
2023-03-11T21:59:06.233Z,0.40
2023-03-11T22:01:33.987Z,0.50
2023-03-11T22:04:01.926Z,0.50
2023-03-11T22:06:30.879Z,0.60
2023-03-11T22:08:57.710Z,0.60
2023-03-11T22:11:24.380Z,0.60
2023-03-11T22:13:52.858Z,0.60
2023-03-11T22:16:21.156Z,0.60
2023-03-11T22:18:48.835Z,0.60
2023-03-11T22:21:16.054Z,0.60
2023-03-11T22:23:44.184Z,0.60
2023-03-11T22:26:10.897Z,0.60
2023-03-11T22:28:37.556Z,0.60
2023-03-11T22:31:11.919Z,0.60
2023-03-11T22:33:38.528Z,0.60
2023-03-11T22:36:06.080Z,0.60
2023-03-11T22:38:34.044Z,0.60
2023-03-11T22:41:00.768Z,0.70
2023-03-11T22:43:27.684Z,0.70
2023-03-11T22:45:54.301Z,0.70
2023-03-11T22:48:21.004Z,0.80
2023-03-11T22:50:47.718Z,0.70
2023-03-11T22:53:15.661Z,0.70
2023-03-11T22:55:43.735Z,0.80
2023-03-11T22:58:11.699Z,0.80
2023-03-11T23:00:39.508Z,0.80
2023-03-11T23:03:06.647Z,0.70
2023-03-11T23:05:40.571Z,0.70
2023-03-11T23:08:12.029Z,0.80
2023-03-11T23:10:46.230Z,0.80
2023-03-11T23:13:13.756Z,0.80
2023-03-11T23:15:41.982Z,0.80
2023-03-11T23:18:09.044Z,0.80
2023-03-11T23:20:37.917Z,0.80
2023-03-11T23:23:05.485Z,0.90
2023-03-11T23:25:33.331Z,0.90
2023-03-11T23:28:02.108Z,0.80
2023-03-11T23:30:29.217Z,0.80
2023-03-11T23:32:56.994Z,0.70
2023-03-11T23:35:23.775Z,0.80
2023-03-11T23:37:51.072Z,0.90
2023-03-11T23:40:18.137Z,0.90
2023-03-11T23:42:44.740Z,0.90
2023-03-11T23:45:11.462Z,0.90
2023-03-11T23:47:38.055Z,0.70
2023-03-11T23:50:05.076Z,0.70
2023-03-11T23:52:31.694Z,0.70
2023-03-11T23:54:58.370Z,0.70
2023-03-11T23:57:25.672Z,0.60
2023-03-11T23:59:52.228Z,0.70
